Time;durP1;ratioP1;P1;durP2;ratioP2;P2;SDS_P1;SDS_P2;PMS_P1;PMS_P2;Temp;Humidity;BMP_temperature;BMP_pressure;BME280_temperature;BME280_humidity;BME280_pressure;Samples;Min_cycle;Max_cycle;Signal;HPM_P1;HPM_P2
2022/05/30 00:02:03;;;;;;;7.43;1.77;;;10.10;99.90;;;;;;5069539;28;20040;-33
2022/05/30 00:04:31;;;;;;;7.43;1.58;;;10.00;99.90;;;;;;5055482;28;20049;-33
2022/05/30 00:06:58;;;;;;;5.00;1.65;;;10.10;99.90;;;;;;5063404;28;20045;-33
2022/05/30 00:09:25;;;;;;;7.82;1.65;;;10.00;99.90;;;;;;5052460;28;20045;-32
2022/05/30 00:11:51;;;;;;;15.05;2.05;;;10.00;99.90;;;;;;5052454;28;20400;-32
2022/05/30 00:14:18;;;;;;;8.00;1.80;;;10.00;99.90;;;;;;5052772;28;20052;-33
2022/05/30 00:16:45;;;;;;;8.02;1.73;;;10.00;99.90;;;;;;5061247;28;20135;-33
2022/05/30 00:19:11;;;;;;;5.88;1.67;;;10.00;99.90;;;;;;5056956;28;20092;-33
2022/05/30 00:21:40;;;;;;;7.95;1.70;;;9.90;99.90;;;;;;5054014;28;20049;-33
2022/05/30 00:24:07;;;;;;;7.63;1.98;;;10.00;99.90;;;;;;5083581;28;20097;-33
2022/05/30 00:26:34;;;;;;;7.20;1.55;;;9.90;99.90;;;;;;5091996;28;20081;-34
2022/05/30 00:29:00;;;;;;;9.10;1.67;;;9.90;99.90;;;;;;5092735;28;20044;-33
2022/05/30 00:31:27;;;;;;;5.97;1.38;;;9.90;99.90;;;;;;5082546;28;20059;-33
2022/05/30 00:33:54;;;;;;;8.07;1.80;;;9.90;99.90;;;;;;5069126;28;20449;-34
2022/05/30 00:36:20;;;;;;;6.65;1.60;;;9.80;99.90;;;;;;5068609;28;20047;-34
2022/05/30 00:38:48;;;;;;;7.85;1.60;;;9.80;99.90;;;;;;5063013;28;20044;-33
2022/05/30 00:41:16;;;;;;;6.97;1.88;;;9.90;99.90;;;;;;5069360;28;20054;-33
2022/05/30 00:43:44;;;;;;;10.88;2.10;;;9.70;99.90;;;;;;5092455;28;20059;-33
2022/05/30 00:46:12;;;;;;;9.30;1.77;;;9.70;99.90;;;;;;5090087;28;20094;-33
2022/05/30 00:48:41;;;;;;;8.75;2.20;;;9.70;99.90;;;;;;5092194;28;20048;-34
2022/05/30 00:51:14;;;;;;;6.40;1.77;;;9.70;99.90;;;;;;5082097;28;20063;-33
2022/05/30 00:53:40;;;;;;;8.07;2.10;;;9.60;99.90;;;;;;5083588;28;20134;-33
2022/05/30 00:56:10;;;;;;;4.10;1.70;;;9.60;99.90;;;;;;5093322;28;20488;-33
2022/05/30 00:58:38;;;;;;;7.88;2.00;;;9.50;99.90;;;;;;5096628;28;20040;-34
2022/05/30 01:01:05;;;;;;;11.13;2.30;;;9.50;99.90;;;;;;5081671;28;20062;-34
2022/05/30 01:06:31;;;;;;;10.43;2.30;;;9.50;99.90;;;;;;5074625;28;20048;-34
2022/05/30 01:08:59;;;;;;;9.15;1.98;;;9.50;99.90;;;;;;5081296;28;20072;-34
2022/05/30 01:11:27;;;;;;;7.68;1.63;;;9.40;99.90;;;;;;5092319;28;20051;-34
2022/05/30 01:13:53;;;;;;;8.20;1.63;;;9.40;99.90;;;;;;5096692;28;20384;-34
2022/05/30 01:16:22;;;;;;;9.43;2.08;;;9.30;99.90;;;;;;5080709;28;20052;-34
2022/05/30 01:18:51;;;;;;;8.82;2.03;;;9.30;99.90;;;;;;5057142;28;20045;-34
2022/05/30 01:21:33;;;;;;;7.72;1.80;;;9.30;99.90;;;;;;5070810;28;20419;-34
2022/05/30 01:24:01;;;;;;;7.72;1.67;;;9.30;99.90;;;;;;5072651;28;20139;-34
2022/05/30 01:26:53;;;;;;;4.30;1.70;;;9.20;99.90;;;;;;5076965;28;20044;-34
2022/05/30 01:29:22;;;;;;;;;;;9.20;99.90;;;;;;5078947;28;20060;-34
2022/05/30 01:31:48;;;;;;;7.07;1.60;;;9.10;99.90;;;;;;5078434;28;20368;-34
2022/05/30 01:34:15;;;;;;;7.93;1.85;;;9.10;99.90;;;;;;5073283;28;20403;-34
2022/05/30 01:36:42;;;;;;;9.02;2.03;;;9.10;99.90;;;;;;5066423;28;20049;-34
2022/05/30 01:39:09;;;;;;;6.50;1.65;;;9.10;99.90;;;;;;5058794;28;20057;-34
2022/05/30 01:41:36;;;;;;;11.80;1.95;;;9.10;99.90;;;;;;5068186;28;20052;-34
2022/05/30 01:44:03;;;;;;;8.15;1.98;;;9.00;99.90;;;;;;5074732;28;20489;-34
2022/05/30 01:46:31;;;;;;;4.32;1.70;;;9.00;99.90;;;;;;5073660;28;20059;-34
2022/05/30 01:48:57;;;;;;;8.25;1.90;;;9.00;99.90;;;;;;5072522;28;20052;-34
2022/05/30 01:51:24;;;;;;;4.47;1.65;;;9.00;99.90;;;;;;5073525;28;20144;-34
2022/05/30 01:53:51;;;;;;;7.45;2.03;;;9.00;99.90;;;;;;5070177;28;20059;-34
2022/05/30 01:56:18;;;;;;;8.30;1.80;;;9.00;99.90;;;;;;5065579;28;20428;-34
2022/05/30 01:58:44;;;;;;;9.55;2.95;;;9.00;99.90;;;;;;5087948;28;20071;-34
2022/05/30 02:01:16;;;;;;;8.15;2.15;;;9.00;99.90;;;;;;5081388;28;20063;-34
2022/05/30 02:03:44;;;;;;;6.75;2.08;;;9.00;99.90;;;;;;5075349;28;20044;-34
2022/05/30 02:06:11;;;;;;;7.50;1.95;;;9.00;99.90;;;;;;5063880;28;20041;-35
2022/05/30 02:08:37;;;;;;;9.35;1.90;;;9.00;99.90;;;;;;5075538;28;20044;-34
2022/05/30 02:11:04;;;;;;;6.90;2.10;;;9.00;99.90;;;;;;5082847;28;20052;-34
2022/05/30 02:13:31;;;;;;;4.82;1.77;;;9.00;99.90;;;;;;5073706;28;20078;-34
2022/05/30 02:18:42;;;;;;;6.20;1.65;;;8.90;99.90;;;;;;5065414;28;20049;-34
2022/05/30 02:21:10;;;;;;;10.30;2.08;;;8.90;99.90;;;;;;5058345;28;20049;-34
2022/05/30 02:23:36;;;;;;;5.25;1.60;;;8.90;99.90;;;;;;5081308;28;20053;-34
2022/05/30 02:26:03;;;;;;;7.78;1.92;;;8.90;99.90;;;;;;5074973;28;20155;-34
2022/05/30 02:28:30;;;;;;;8.90;1.90;;;8.90;99.90;;;;;;5071409;28;20040;-34
2022/05/30 02:30:57;;;;;;;9.10;1.70;;;8.90;99.90;;;;;;5074336;28;20051;-34
2022/05/30 02:38:54;;;;;;;5.72;1.58;;;8.80;99.90;;;;;;5074599;28;20135;-34
2022/05/30 02:41:20;;;;;;;7.43;1.70;;;8.80;99.90;;;;;;5073758;28;20522;-34
2022/05/30 02:43:47;;;;;;;4.90;1.48;;;8.80;99.90;;;;;;5074592;28;20071;-34
2022/05/30 02:46:14;;;;;;;5.72;1.63;;;8.70;99.90;;;;;;5072960;28;20056;-34
2022/05/30 02:48:41;;;;;;;5.97;1.92;;;8.80;99.90;;;;;;5078453;28;20044;-43
2022/05/30 02:51:07;;;;;;;5.75;2.13;;;8.70;99.90;;;;;;5074755;28;20041;-42
2022/05/30 02:53:35;;;;;;;5.20;1.70;;;8.70;99.90;;;;;;5082025;28;20052;-43
2022/05/30 02:56:02;;;;;;;3.53;1.58;;;8.70;99.90;;;;;;5083334;28;20048;-43
2022/05/30 02:58:29;;;;;;;5.53;1.70;;;8.60;99.90;;;;;;5072627;28;20127;-43
2022/05/30 03:00:55;;;;;;;7.22;1.60;;;8.50;99.90;;;;;;5068590;28;20068;-43
2022/05/30 03:03:22;;;;;;;6.35;1.90;;;8.60;99.90;;;;;;5066723;28;20049;-43
2022/05/30 03:05:49;;;;;;;5.88;1.90;;;8.50;99.90;;;;;;5069665;28;20507;-43
2022/05/30 03:08:15;;;;;;;8.25;2.28;;;8.50;99.90;;;;;;5070498;28;20046;-42
2022/05/30 03:10:43;;;;;;;4.80;1.58;;;8.50;99.90;;;;;;5071375;28;20044;-42
2022/05/30 03:13:10;;;;;;;6.30;1.75;;;8.50;99.90;;;;;;5071078;28;20408;-43
2022/05/30 03:15:37;;;;;;;5.07;1.80;;;8.40;99.90;;;;;;5072929;28;20056;-42
2022/05/30 03:18:04;;;;;;;7.63;1.83;;;8.40;99.90;;;;;;5059725;28;20063;-42
2022/05/30 03:20:30;;;;;;;4.13;1.60;;;8.30;99.90;;;;;;5062389;28;20041;-43
2022/05/30 03:22:57;;;;;;;5.18;1.60;;;8.30;99.90;;;;;;5072745;28;20051;-43
2022/05/30 03:25:24;;;;;;;4.57;1.60;;;8.30;99.90;;;;;;5069481;28;20055;-42
2022/05/30 03:27:53;;;;;;;6.13;1.50;;;8.20;99.90;;;;;;5052275;28;20047;-44
2022/05/30 03:30:20;;;;;;;3.17;1.63;;;8.20;99.90;;;;;;5053096;28;20067;-44
2022/05/30 03:32:46;;;;;;;5.07;1.60;;;8.10;99.90;;;;;;5067519;28;20062;-44
2022/05/30 03:35:13;;;;;;;4.35;1.50;;;8.10;99.90;;;;;;5068159;28;20051;-44
2022/05/30 03:37:40;;;;;;;5.25;2.47;;;8.10;99.90;;;;;;5065978;28;20048;-44
2022/05/30 03:40:08;;;;;;;6.28;2.30;;;8.10;99.90;;;;;;5070094;28;20044;-42
2022/05/30 03:42:35;;;;;;;4.07;1.70;;;8.00;99.90;;;;;;5079800;28;20408;-41
2022/05/30 03:45:04;;;;;;;5.57;2.00;;;8.00;99.90;;;;;;5076963;28;20045;-42
2022/05/30 03:47:36;;;;;;;7.80;2.15;;;8.00;99.90;;;;;;5072324;28;20489;-44
2022/05/30 03:50:03;;;;;;;5.18;1.77;;;7.90;99.90;;;;;;5070181;28;20527;-44
2022/05/30 03:52:29;;;;;;;9.40;1.95;;;7.90;99.90;;;;;;5064186;28;20051;-43
2022/05/30 03:54:56;;;;;;;6.30;2.05;;;7.90;99.90;;;;;;5069743;28;20055;-44
2022/05/30 03:57:23;;;;;;;5.22;1.98;;;7.90;99.90;;;;;;5064558;28;20067;-43
2022/05/30 03:59:49;;;;;;;6.47;2.00;;;7.90;99.90;;;;;;5071944;28;20054;-43
2022/05/30 04:02:17;;;;;;;3.83;1.77;;;7.90;99.90;;;;;;5064937;28;20055;-43
2022/05/30 04:04:44;;;;;;;7.97;2.35;;;7.90;99.90;;;;;;5073012;28;20052;-44
2022/05/30 04:07:11;;;;;;;3.67;1.90;;;7.90;99.90;;;;;;5071972;28;20052;-44
2022/05/30 04:09:37;;;;;;;4.35;1.70;;;7.90;99.90;;;;;;5072965;28;20048;-44
2022/05/30 04:12:05;;;;;;;6.07;2.20;;;7.90;99.90;;;;;;5070338;28;20076;-44
2022/05/30 04:14:32;;;;;;;3.63;1.60;;;7.90;99.90;;;;;;5073548;28;20084;-44
2022/05/30 04:16:58;;;;;;;5.75;1.92;;;7.90;99.90;;;;;;5066190;28;20059;-43
2022/05/30 04:19:26;;;;;;;3.40;1.70;;;8.00;99.90;;;;;;5074411;28;20075;-43
2022/05/30 04:21:53;;;;;;;4.97;2.00;;;7.90;99.90;;;;;;5069101;28;20052;-42
2022/05/30 04:24:20;;;;;;;3.25;1.55;;;8.00;99.90;;;;;;5072476;28;20052;-43
2022/05/30 04:26:46;;;;;;;3.05;1.67;;;8.00;99.90;;;;;;5071539;28;20139;-43
2022/05/30 04:29:13;;;;;;;4.53;1.77;;;8.00;99.90;;;;;;5065848;28;20500;-43
2022/05/30 04:31:40;;;;;;;4.13;1.90;;;8.00;99.90;;;;;;5068741;28;20044;-42
2022/05/30 04:34:08;;;;;;;2.88;1.50;;;8.00;99.90;;;;;;5069329;28;20048;-42
2022/05/30 04:36:36;;;;;;;2.85;1.67;;;8.10;99.90;;;;;;5079937;28;20098;-43
2022/05/30 04:39:03;;;;;;;6.70;1.80;;;8.10;99.90;;;;;;5072832;28;20370;-43
2022/05/30 04:41:29;;;;;;;4.93;1.70;;;8.20;99.90;;;;;;5076204;28;20058;-43
2022/05/30 04:43:59;;;;;;;5.50;1.92;;;8.20;99.90;;;;;;5075151;28;20102;-43
2022/05/30 04:46:26;;;;;;;4.60;1.92;;;8.30;99.90;;;;;;5072730;28;20056;-43
2022/05/30 04:48:52;;;;;;;8.45;1.92;;;8.30;99.90;;;;;;5067350;28;20489;-43
2022/05/30 04:51:19;;;;;;;9.18;2.05;;;8.40;99.90;;;;;;5073029;28;20048;-42
2022/05/30 04:53:47;;;;;;;8.55;2.00;;;8.40;99.90;;;;;;5091017;28;20054;-42
2022/05/30 04:56:14;;;;;;;7.40;1.90;;;8.50;99.90;;;;;;5082514;28;20432;-43
2022/05/30 04:58:40;;;;;;;3.97;1.55;;;8.50;99.90;;;;;;5059896;28;20147;-43
2022/05/30 05:01:08;;;;;;;8.18;2.53;;;8.50;99.90;;;;;;5069725;28;20408;-43
2022/05/30 05:03:37;;;;;;;4.32;1.40;;;8.50;99.90;;;;;;5053479;28;20076;-43
2022/05/30 05:06:05;;;;;;;6.85;1.70;;;8.50;99.90;;;;;;5070420;28;20036;-42
2022/05/30 05:08:39;;;;;;;4.05;1.83;;;8.60;99.90;;;;;;5072319;28;20041;-42
2022/05/30 05:11:16;;;;;;;5.38;1.95;;;8.60;99.90;;;;;;5064323;28;20060;-43
2022/05/30 05:13:43;;;;;;;6.47;2.10;;;8.60;99.90;;;;;;5066649;28;20048;-43
2022/05/30 05:16:11;;;;;;;5.28;2.13;;;8.70;99.90;;;;;;5070445;28;20041;-43
2022/05/30 05:18:37;;;;;;;7.07;2.15;;;8.70;99.90;;;;;;5072951;28;20521;-42
2022/05/30 05:21:04;;;;;;;7.40;1.98;;;8.80;99.90;;;;;;5072147;28;20061;-43
2022/05/30 05:23:31;;;;;;;5.03;1.88;;;8.70;99.90;;;;;;5076166;28;20058;-42
2022/05/30 05:25:58;;;;;;;6.30;1.95;;;8.80;99.90;;;;;;5086478;28;20107;-43
2022/05/30 05:28:26;;;;;;;3.53;1.90;;;8.80;99.90;;;;;;5071353;28;20465;-43
2022/05/30 05:30:52;;;;;;;5.70;2.20;;;8.90;99.90;;;;;;5077814;28;20044;-43
2022/05/30 05:33:19;;;;;;;4.78;1.92;;;9.00;99.90;;;;;;5051949;28;20049;-43
2022/05/30 05:35:46;;;;;;;6.30;2.00;;;9.10;99.90;;;;;;5052135;28;20135;-42
2022/05/30 05:38:13;;;;;;;5.55;1.92;;;9.30;99.90;;;;;;5051963;28;20499;-43
2022/05/30 05:40:40;;;;;;;4.53;2.10;;;9.40;99.90;;;;;;5052157;28;20052;-42
2022/05/30 05:43:06;;;;;;;7.85;1.90;;;9.50;99.90;;;;;;5054281;28;20559;-43
2022/05/30 05:45:35;;;;;;;5.90;2.00;;;9.70;99.90;;;;;;5055756;28;20057;-43
2022/05/30 05:48:01;;;;;;;8.20;1.83;;;9.80;99.90;;;;;;5055598;28;20052;-42
2022/05/30 05:50:28;;;;;;;6.50;1.95;;;9.90;99.90;;;;;;5066140;28;20506;-43
2022/05/30 05:52:55;;;;;;;6.43;1.60;;;10.00;99.90;;;;;;5074535;28;20400;-43
2022/05/30 05:55:22;;;;;;;12.88;2.00;;;10.10;99.90;;;;;;5075661;28;20052;-43
2022/05/30 05:57:49;;;;;;;9.00;1.95;;;10.10;99.90;;;;;;5075417;28;20056;-42
2022/05/30 06:00:16;;;;;;;5.57;1.88;;;10.20;99.90;;;;;;5075432;28;20453;-43
2022/05/30 06:02:44;;;;;;;4.85;1.48;;;10.30;99.90;;;;;;5074275;28;20378;-43
2022/05/30 06:05:11;;;;;;;6.07;1.95;;;10.40;99.90;;;;;;5075511;28;20045;-43
2022/05/30 06:07:39;;;;;;;3.67;1.75;;;10.50;99.90;;;;;;5074927;28;20407;-43
2022/05/30 06:10:07;;;;;;;6.20;1.60;;;10.60;99.90;;;;;;5074118;28;20131;-43
2022/05/30 06:12:34;;;;;;;3.70;1.40;;;10.60;99.90;;;;;;5075269;28;20461;-43
2022/05/30 06:15:01;;;;;;;6.15;1.73;;;10.70;99.90;;;;;;5075038;28;20053;-43
2022/05/30 06:17:28;;;;;;;5.40;1.27;;;10.70;99.90;;;;;;5075149;28;20044;-42
2022/05/30 06:19:56;;;;;;;4.47;1.63;;;10.70;99.90;;;;;;5074725;28;20044;-43
2022/05/30 06:22:22;;;;;;;11.15;1.40;;;10.80;99.90;;;;;;5074802;28;20051;-43
2022/05/30 06:24:49;;;;;;;7.22;1.35;;;10.90;99.90;;;;;;5074826;28;20052;-43
2022/05/30 06:27:18;;;;;;;5.88;1.40;;;11.00;99.90;;;;;;5073995;28;20062;-44
2022/05/30 06:29:45;;;;;;;5.10;1.05;;;11.10;99.90;;;;;;5074979;28;20132;-44
2022/05/30 06:32:12;;;;;;;5.93;1.10;;;11.30;99.90;;;;;;5073770;28;20059;-44
2022/05/30 06:34:39;;;;;;;3.78;1.17;;;11.30;99.90;;;;;;5073710;28;20052;-43
2022/05/30 06:37:08;;;;;;;3.58;1.10;;;11.40;99.90;;;;;;5073472;28;20063;-44
2022/05/30 06:39:35;;;;;;;4.78;1.13;;;11.50;99.90;;;;;;5074828;28;20457;-43
2022/05/30 06:42:01;;;;;;;3.53;0.88;;;11.70;99.90;;;;;;5074644;28;20063;-43
2022/05/30 06:44:28;;;;;;;4.88;1.10;;;11.80;99.90;;;;;;5074674;28;20052;-43
2022/05/30 06:46:55;;;;;;;6.65;0.85;;;11.80;99.90;;;;;;5074480;28;20404;-43
2022/05/30 06:49:22;;;;;;;4.88;0.90;;;11.80;99.90;;;;;;5074200;28;20407;-43
2022/05/30 06:51:48;;;;;;;5.22;1.27;;;11.90;99.90;;;;;;5074269;28;20059;-44
2022/05/30 06:54:16;;;;;;;4.80;1.40;;;12.00;99.90;;;;;;5073452;28;20479;-44
2022/05/30 06:58:12;;;;;;;5.50;1.17;;;12.00;99.90;;;;;;5074447;28;20059;-44
2022/05/30 06:59:31;;;;;;;3.22;0.73;;;12.10;99.90;;;;;;5069454;28;20053;-43
2022/05/30 07:01:59;;;;;;;4.32;1.40;;;12.20;99.90;;;;;;5071616;28;20460;-42
2022/05/30 07:04:26;;;;;;;3.53;1.10;;;12.30;99.90;;;;;;5073902;28;20052;-43
2022/05/30 07:06:52;;;;;;;7.72;1.30;;;12.30;99.90;;;;;;5074272;28;20057;-44
2022/05/30 07:09:20;;;;;;;2.78;0.98;;;12.40;99.90;;;;;;5074135;28;20374;-44
2022/05/30 07:11:49;;;;;;;3.58;1.17;;;12.50;99.90;;;;;;5073962;28;20059;-43
2022/05/30 07:14:16;;;;;;;3.45;1.10;;;12.70;99.90;;;;;;5073877;28;20122;-44
2022/05/30 07:16:43;;;;;;;2.25;0.80;;;12.80;99.90;;;;;;5073792;28;20102;-43
2022/05/30 07:19:10;;;;;;;3.28;0.95;;;12.90;99.90;;;;;;5073428;28;20055;-44
2022/05/30 07:21:37;;;;;;;3.20;0.77;;;13.00;99.90;;;;;;5073683;28;20045;-44
2022/05/30 07:24:04;;;;;;;1.40;0.70;;;13.10;99.70;;;;;;5073704;28;20044;-44
2022/05/30 07:26:32;;;;;;;3.47;0.80;;;13.20;99.40;;;;;;5073756;28;20153;-43
2022/05/30 07:28:59;;;;;;;3.85;1.02;;;13.30;98.90;;;;;;5073502;28;20048;-42
2022/05/30 07:31:28;;;;;;;3.25;0.70;;;13.30;98.80;;;;;;5073741;28;20056;-43
2022/05/30 07:33:55;;;;;;;3.90;0.70;;;13.40;98.70;;;;;;5072429;28;20102;-44
2022/05/30 07:36:24;;;;;;;2.05;0.68;;;13.50;98.40;;;;;;5072634;28;20291;-43
2022/05/30 07:38:50;;;;;;;2.95;0.70;;;13.70;98.20;;;;;;5072752;28;20440;-43
2022/05/30 07:41:17;;;;;;;4.18;0.63;;;13.80;98.30;;;;;;5073459;28;20048;-43
2022/05/30 07:43:47;;;;;;;2.03;0.60;;;14.10;98.00;;;;;;5073301;28;20048;-43
2022/05/30 07:46:14;;;;;;;2.58;0.70;;;14.40;97.10;;;;;;5073270;28;20263;-43
2022/05/30 07:48:41;;;;;;;4.53;1.05;;;14.60;96.70;;;;;;5072993;28;20053;-44
2022/05/30 07:51:08;;;;;;;2.10;0.60;;;14.80;96.40;;;;;;5072170;28;20063;-43
2022/05/30 07:53:35;;;;;;;3.70;0.70;;;15.00;95.70;;;;;;5072387;28;20045;-44
2022/05/30 07:56:04;;;;;;;2.25;1.17;;;15.10;94.70;;;;;;5073120;28;20049;-42
2022/05/30 07:58:31;;;;;;;2.72;0.68;;;15.10;94.30;;;;;;5073262;28;20139;-43
2022/05/30 08:00:59;;;;;;;4.30;0.70;;;15.10;94.60;;;;;;5055452;28;20048;-43
2022/05/30 08:03:25;;;;;;;2.28;0.68;;;15.10;94.60;;;;;;5053198;28;20055;-43
2022/05/30 08:05:52;;;;;;;1.45;0.50;;;15.10;94.20;;;;;;5052915;28;20167;-43
2022/05/30 08:08:19;;;;;;;1.90;0.50;;;15.00;93.60;;;;;;5053107;28;20059;-43
2022/05/30 08:10:46;;;;;;;2.35;0.63;;;15.00;93.60;;;;;;5051458;28;20512;-43
2022/05/30 08:13:13;;;;;;;5.45;0.63;;;15.00;93.50;;;;;;5052959;28;20071;-44
2022/05/30 08:15:40;;;;;;;1.65;0.70;;;15.10;93.40;;;;;;5052665;28;20408;-43
2022/05/30 08:18:08;;;;;;;2.13;0.73;;;15.10;93.00;;;;;;5053039;28;20045;-43
2022/05/30 08:20:35;;;;;;;2.58;0.80;;;15.10;92.90;;;;;;5066378;28;20058;-43
2022/05/30 08:23:01;;;;;;;3.33;0.47;;;15.10;92.90;;;;;;5072893;28;20485;-43
2022/05/30 08:25:28;;;;;;;1.40;0.40;;;15.00;92.60;;;;;;5072751;28;20074;-42
2022/05/30 08:27:55;;;;;;;1.60;0.60;;;15.00;93.40;;;;;;5071843;28;20044;-43
2022/05/30 08:30:22;;;;;;;2.78;0.50;;;14.90;94.50;;;;;;5071758;28;20062;-42
2022/05/30 08:32:48;;;;;;;3.47;0.80;;;14.80;95.20;;;;;;5073061;28;20131;-42
2022/05/30 08:35:17;;;;;;;1.90;0.70;;;14.70;95.80;;;;;;5071678;28;20131;-42
2022/05/30 08:37:45;;;;;;;1.45;0.57;;;14.60;96.20;;;;;;5071475;28;20049;-43
2022/05/30 08:42:58;;;;;;;1.65;0.73;;;14.40;96.60;;;;;;5072345;28;20147;-43
2022/05/30 08:45:25;;;;;;;3.13;0.60;;;14.30;97.20;;;;;;5072626;28;20059;-45
2022/05/30 08:47:53;;;;;;;1.30;0.47;;;14.20;97.20;;;;;;5072419;28;20056;-44
2022/05/30 08:50:34;;;;;;;1.77;0.50;;;14.10;97.50;;;;;;5072213;28;20496;-44
2022/05/30 08:53:10;;;;;;;;;;;14.00;97.60;;;;;;5071884;28;20385;-45
2022/05/30 08:55:43;;;;;;;1.38;0.50;;;13.90;97.40;;;;;;5072408;28;19934;-45
2022/05/30 08:58:14;;;;;;;1.25;0.50;;;13.90;98.30;;;;;;5072717;28;20403;-45
2022/05/30 09:00:45;;;;;;;1.35;0.50;;;14.00;98.40;;;;;;5072280;28;20127;-44
2022/05/30 09:03:13;;;;;;;2.58;0.50;;;14.10;98.30;;;;;;5072267;28;20055;-44
2022/05/30 09:05:44;;;;;;;2.50;0.40;;;14.10;98.40;;;;;;5071292;28;20055;-43
2022/05/30 09:08:12;;;;;;;1.23;0.63;;;14.20;98.00;;;;;;5070989;28;20056;-43
2022/05/30 09:10:40;;;;;;;7.45;0.73;;;14.20;98.00;;;;;;5072176;28;20052;-43
2022/05/30 09:13:12;;;;;;;2.75;0.77;;;14.30;97.70;;;;;;5072299;28;20088;-43
2022/05/30 09:15:47;;;;;;;3.83;1.50;;;14.40;97.80;;;;;;5072405;28;20103;-43
2022/05/30 09:18:16;;;;;;;1.88;0.93;;;14.40;97.70;;;;;;5074471;28;20507;-43
2022/05/30 09:20:44;;;;;;;1.73;0.73;;;14.50;97.70;;;;;;5074099;28;20070;-43
2022/05/30 09:23:12;;;;;;;3.38;0.95;;;14.50;97.30;;;;;;5074691;28;20057;-43
2022/05/30 09:26:01;;;;;;;3.17;0.88;;;14.60;97.50;;;;;;5075544;28;20511;-43
2022/05/30 09:28:29;;;;;;;3.50;0.60;;;14.60;97.20;;;;;;5075757;28;20052;-43
2022/05/30 09:30:58;;;;;;;1.63;0.40;;;14.70;97.20;;;;;;5075621;28;20067;-43
2022/05/30 09:33:29;;;;;;;1.17;0.45;;;14.80;96.60;;;;;;5075519;28;20048;-43
2022/05/30 09:36:11;;;;;;;0.57;0.30;;;14.90;96.30;;;;;;5075002;28;20045;-43
2022/05/30 09:38:40;;;;;;;1.13;0.38;;;15.00;95.70;;;;;;5074916;28;20049;-43
2022/05/30 09:41:12;;;;;;;0.90;0.30;;;15.20;95.60;;;;;;5075818;28;20055;-43
2022/05/30 09:43:41;;;;;;;1.02;0.30;;;15.30;94.60;;;;;;5076013;28;20127;-43
2022/05/30 09:46:16;;;;;;;3.58;0.40;;;15.30;94.00;;;;;;5075489;28;20131;-43
2022/05/30 09:48:59;;;;;;;0.93;0.30;;;15.40;93.50;;;;;;5074454;28;20404;-43
2022/05/30 09:51:35;;;;;;;2.40;0.40;;;15.50;93.20;;;;;;5055696;28;20049;-43
2022/05/30 09:54:02;;;;;;;0.40;0.30;;;15.70;93.30;;;;;;5054538;28;20055;-43
2022/05/30 09:56:29;;;;;;;1.17;0.40;;;15.70;92.40;;;;;;5054183;28;20481;-42
2022/05/30 09:59:03;;;;;;;1.60;0.40;;;15.90;92.90;;;;;;5055505;28;20064;-43
2022/05/30 10:01:31;;;;;;;1.80;0.80;;;16.20;93.00;;;;;;5055548;28;20515;-43
2022/05/30 10:04:13;;;;;;;1.13;0.32;;;16.40;92.40;;;;;;5055365;28;20067;-43
2022/05/30 10:06:41;;;;;;;1.65;0.50;;;16.70;92.20;;;;;;5071271;28;20048;-43
2022/05/30 10:09:09;;;;;;;1.52;0.40;;;16.90;90.70;;;;;;5055027;28;20484;-42
2022/05/30 10:11:36;;;;;;;1.67;0.50;;;17.10;90.30;;;;;;5055136;28;20057;-43
2022/05/30 10:14:17;;;;;;;1.48;0.50;;;17.20;90.10;;;;;;5055158;28;20057;-43
2022/05/30 10:16:45;;;;;;;2.22;0.52;;;17.40;90.20;;;;;;5055321;28;20445;-43
2022/05/30 10:19:19;;;;;;;2.03;0.60;;;17.60;90.20;;;;;;5077620;28;20044;-43
2022/05/30 10:30:15;;;;;;;2.08;0.60;;;17.60;90.50;;;;;;5072294;28;20082;-43
2022/05/30 10:32:47;;;;;;;0.55;0.38;;;17.30;89.50;;;;;;5069332;28;20048;-42
2022/05/30 10:35:21;;;;;;;2.08;0.70;;;17.20;90.60;;;;;;5069407;28;20053;-44
2022/05/30 10:37:58;;;;;;;2.75;0.60;;;17.30;90.50;;;;;;5074154;28;20493;-44
2022/05/30 10:40:29;;;;;;;1.35;0.40;;;17.10;90.30;;;;;;5066728;28;20403;-44
2022/05/30 10:42:58;;;;;;;2.42;0.40;;;17.10;89.60;;;;;;5059927;28;20050;-43
2022/05/30 10:45:27;;;;;;;1.50;0.50;;;17.10;89.60;;;;;;5061781;28;20039;-44
2022/05/30 10:47:55;;;;;;;0.75;0.28;;;17.00;89.30;;;;;;5058825;28;20056;-44
2022/05/30 10:50:24;;;;;;;0.52;0.20;;;17.00;88.90;;;;;;5074041;28;20059;-43
2022/05/30 10:52:55;;;;;;;2.58;0.40;;;17.00;87.90;;;;;;5066072;28;20045;-44
2022/05/30 10:55:24;;;;;;;1.60;0.33;;;17.00;87.30;;;;;;5071848;28;20338;-44
2022/05/30 10:57:53;;;;;;;2.58;0.50;;;17.10;86.00;;;;;;5068253;28;20111;-44
2022/05/30 11:00:21;;;;;;;2.58;0.52;;;17.10;86.50;;;;;;5068455;28;20476;-43
2022/05/30 11:02:52;;;;;;;1.90;0.70;;;17.30;85.20;;;;;;5069720;28;20151;-43
2022/05/30 11:05:22;;;;;;;2.17;0.40;;;17.30;83.70;;;;;;5062624;28;20056;-44
2022/05/30 11:07:51;;;;;;;5.45;0.63;;;17.40;85.10;;;;;;5070035;28;20048;-44
2022/05/30 11:10:32;;;;;;;2.50;0.57;;;17.60;86.00;;;;;;5067078;28;20048;-44
2022/05/30 11:13:02;;;;;;;1.95;0.50;;;17.70;84.60;;;;;;5061185;28;20055;-43
2022/05/30 11:15:31;;;;;;;1.95;0.50;;;17.80;84.50;;;;;;5053961;28;20060;-44
2022/05/30 11:18:01;;;;;;;0.90;0.32;;;18.00;83.90;;;;;;5066527;28;20059;-44
2022/05/30 11:20:30;;;;;;;4.15;0.45;;;18.00;82.60;;;;;;5072491;28;20102;-43
2022/05/30 11:22:57;;;;;;;3.25;0.60;;;17.90;82.20;;;;;;5068524;28;20051;-43
2022/05/30 11:25:31;;;;;;;2.28;0.70;;;17.70;83.40;;;;;;5068410;28;20131;-44
2022/05/30 11:28:03;;;;;;;3.45;0.70;;;17.50;84.50;;;;;;5064698;28;20053;-44
2022/05/30 11:30:42;;;;;;;1.10;0.50;;;17.30;85.30;;;;;;5068664;28;20480;-43
2022/05/30 11:33:47;;;;;;;1.90;0.60;;;17.10;86.60;;;;;;5069241;28;20041;-43
2022/05/30 11:36:46;;;;;;;3.50;0.85;;;16.80;86.10;;;;;;5068083;28;20056;-43
2022/05/30 11:39:24;;;;;;;3.67;0.60;;;16.60;87.50;;;;;;5049776;28;20041;-43
2022/05/30 11:41:56;;;;;;;3.47;0.68;;;16.50;88.70;;;;;;5060666;28;20045;-43
2022/05/30 11:44:39;;;;;;;2.03;0.70;;;16.30;88.60;;;;;;5075983;28;20057;-43
2022/05/30 11:47:12;;;;;;;2.70;0.60;;;16.20;88.40;;;;;;5058170;28;20135;-43
2022/05/30 11:49:40;;;;;;;6.38;0.95;;;16.00;89.50;;;;;;5060646;28;20055;-43
2022/05/30 11:52:17;;;;;;;6.40;1.20;;;16.00;90.60;;;;;;5061290;28;20072;-45
2022/05/30 11:54:59;;;;;;;4.38;0.82;;;15.80;91.10;;;;;;5062410;28;20051;-45
2022/05/30 11:57:29;;;;;;;2.35;0.68;;;15.70;91.90;;;;;;5062220;28;20098;-46
2022/05/30 12:00:14;;;;;;;2.50;0.70;;;15.60;92.10;;;;;;5066671;28;20056;-46
2022/05/30 12:03:06;;;;;;;3.47;0.95;;;15.40;92.70;;;;;;5062223;28;20041;-44
2022/05/30 12:05:55;;;;;;;3.88;0.80;;;15.30;93.30;;;;;;5066777;28;20048;-44
2022/05/30 12:08:46;;;;;;;4.75;1.08;;;15.20;93.80;;;;;;5069200;28;20048;-43
2022/05/30 12:11:23;;;;;;;2.88;0.80;;;15.10;94.20;;;;;;5069923;28;20105;-44
2022/05/30 12:14:00;;;;;;;3.03;0.90;;;15.00;94.60;;;;;;5069712;28;20488;-45
2022/05/30 12:16:40;;;;;;;1.73;0.52;;;15.00;95.50;;;;;;5061124;28;20056;-45
2022/05/30 12:25:33;;;;;;;3.50;0.80;;;15.10;95.10;;;;;;5070458;28;20473;-44
2022/05/30 12:28:00;;;;;;;4.10;0.75;;;15.20;95.50;;;;;;5061305;28;20055;-44
2022/05/30 12:30:44;;;;;;;3.42;0.70;;;15.20;95.00;;;;;;5071282;28;20514;-44
2022/05/30 12:33:47;;;;;;;2.17;0.77;;;15.40;95.10;;;;;;5066083;28;20048;-43
2022/05/30 12:36:31;;;;;;;1.92;0.57;;;15.40;95.00;;;;;;5064443;28;20048;-44
2022/05/30 12:38:58;;;;;;;4.10;0.70;;;15.60;95.10;;;;;;5063922;28;20049;-43
2022/05/30 12:41:26;;;;;;;2.70;0.80;;;15.60;95.10;;;;;;5068514;28;20127;-44
2022/05/30 12:43:53;;;;;;;3.25;0.75;;;15.70;95.10;;;;;;5065134;28;20044;-44
2022/05/30 12:46:24;;;;;;;2.53;0.60;;;15.80;95.20;;;;;;5066208;28;20066;-43
2022/05/30 12:49:07;;;;;;;1.87;0.70;;;15.90;94.90;;;;;;5052960;28;20095;-43
2022/05/30 12:51:59;;;;;;;2.15;0.70;;;15.90;94.90;;;;;;5053510;28;20052;-44
2022/05/30 12:54:36;;;;;;;2.90;0.63;;;16.00;95.10;;;;;;5062763;28;20481;-44
2022/05/30 12:57:08;;;;;;;3.13;0.88;;;16.20;94.60;;;;;;5075899;28;20052;-43
2022/05/30 12:59:35;;;;;;;2.67;0.90;;;16.30;94.60;;;;;;5069332;28;20136;-43
2022/05/30 13:02:03;;;;;;;3.13;0.60;;;16.50;94.70;;;;;;5068486;28;20103;-43
2022/05/30 13:04:35;;;;;;;2.75;0.60;;;16.70;94.80;;;;;;5073396;28;20057;-43
2022/05/30 13:07:15;;;;;;;3.70;0.70;;;17.00;94.30;;;;;;5063305;28;20055;-43
2022/05/30 13:09:42;;;;;;;1.65;0.82;;;17.10;93.60;;;;;;5067501;28;20075;-43
2022/05/30 13:12:51;;;;;;;3.05;0.70;;;17.30;93.20;;;;;;5088848;28;20072;-43
2022/05/30 13:15:23;;;;;;;7.18;1.20;;;17.40;92.00;;;;;;5056032;28;20049;-43
2022/05/30 13:17:58;;;;;;;1.02;0.40;;;17.50;91.40;;;;;;5071598;28;20044;-43
2022/05/30 13:20:29;;;;;;;3.70;0.73;;;17.50;91.10;;;;;;5078851;28;20048;-43
2022/05/30 13:22:58;;;;;;;2.03;0.40;;;17.50;91.20;;;;;;5057763;28;20088;-42
2022/05/30 13:25:28;;;;;;;1.55;0.40;;;17.60;90.60;;;;;;5056996;28;20060;-43
2022/05/30 13:27:56;;;;;;;1.55;0.57;;;17.60;90.60;;;;;;5071850;28;20508;-43
2022/05/30 13:30:25;;;;;;;1.35;0.30;;;17.60;90.90;;;;;;5063462;28;20057;-43
2022/05/30 13:32:52;;;;;;;1.42;0.40;;;17.60;90.90;;;;;;5072402;28;20051;-43